METAR Data
IDs: Format: Raw Decoded Include TAF

Data at: 1244 UTC 23 Mar 2019

NZCH 231230Z AUTO 04008KT 9999 OVC013/// 16/14 Q1021 NOSIG
NZCH 231200Z AUTO 05009KT 9999 OVC013/// 16/14 Q1021 NOSIG
NZCH 231130Z AUTO 04007KT 9999 BKN010/// OVC014/// 16/14 Q1021 NOSIG
NZCH 231100Z AUTO 06009KT 9999 OVC011/// 16/15 Q1021 NOSIG
NZCH 231030Z AUTO 07009KT 9999 OVC011/// 17/14 Q1021 NOSIG
NZCH 231000Z AUTO 07009KT 9999 OVC012/// 17/14 Q1021 NOSIG

TAF NZCH 231107Z 2312/2412 06005KT 9999 BKN011
  BECMG 2312/2314 BKN008
  BECMG 2320/2322 07010KT FEW020
  BECMG 2405/2407 32005KT